createdAt,value
2018-08-04T00:01:58.987Z,63.64
2018-08-04T00:04:26.787Z,63.79
2018-08-04T00:06:54.087Z,62.96
2018-08-04T00:09:22.317Z,62.99
2018-08-04T00:11:50.202Z,62.79
2018-08-04T00:14:17.052Z,63.64
2018-08-04T00:16:46.729Z,63.63
2018-08-04T00:19:13.757Z,63.45
2018-08-04T00:21:41.736Z,62.81
2018-08-04T00:24:08.711Z,62.89
2018-08-04T00:26:35.469Z,63.46
2018-08-04T00:29:02.800Z,63.79
2018-08-04T00:31:32.964Z,63.64
2018-08-04T00:33:59.862Z,63.64
2018-08-04T00:36:26.866Z,63.01
2018-08-04T00:38:54.635Z,63.65
2018-08-04T00:41:21.538Z,63.91
2018-08-04T00:43:49.466Z,62.96
2018-08-04T00:46:16.337Z,63.01
2018-08-04T00:48:43.268Z,63.67
2018-08-04T00:51:10.150Z,62.91
2018-08-04T00:53:36.891Z,63.67
2018-08-04T00:56:04.918Z,63.36
2018-08-04T00:58:31.821Z,63.47
2018-08-04T01:00:59.812Z,63.23
2018-08-04T01:03:27.516Z,63.62
2018-08-04T01:05:54.460Z,63.69
2018-08-04T01:08:21.911Z,63.55
2018-08-04T01:10:49.715Z,63.39
2018-08-04T01:13:17.789Z,63.20
2018-08-04T01:15:44.725Z,63.03
2018-08-04T01:18:11.482Z,63.67
2018-08-04T01:20:38.253Z,63.67
2018-08-04T01:23:05.769Z,63.05
2018-08-04T01:25:32.550Z,63.01
2018-08-04T01:28:00.006Z,63.64
2018-08-04T01:30:27.691Z,62.82
2018-08-04T01:32:55.091Z,63.87
2018-08-04T01:35:23.790Z,63.15
2018-08-04T01:37:50.558Z,62.99
2018-08-04T01:40:18.169Z,63.79
2018-08-04T01:42:45.093Z,63.67
2018-08-04T01:45:11.849Z,63.05
2018-08-04T01:47:38.793Z,63.48
2018-08-04T01:50:05.546Z,63.53
2018-08-04T01:52:32.435Z,63.45
2018-08-04T01:55:00.778Z,63.84
2018-08-04T01:57:28.853Z,63.60
2018-08-04T01:59:57.436Z,63.10
2018-08-04T02:02:24.430Z,62.97
2018-08-04T02:04:51.189Z,63.44
2018-08-04T02:07:19.679Z,63.01
2018-08-04T02:09:47.431Z,62.91
2018-08-04T02:12:14.264Z,62.95
2018-08-04T02:14:41.023Z,63.66
2018-08-04T02:17:08.062Z,63.36
2018-08-04T02:19:36.029Z,63.37
2018-08-04T02:22:02.825Z,63.87
2018-08-04T02:24:30.592Z,63.69
2018-08-04T02:26:58.211Z,63.12
2018-08-04T02:29:25.080Z,62.82
2018-08-04T02:31:52.728Z,63.72
2018-08-04T02:34:20.300Z,62.93
2018-08-04T02:36:47.076Z,62.87
2018-08-04T02:39:13.948Z,62.86
2018-08-04T02:41:40.738Z,63.06
2018-08-04T02:44:09.204Z,63.01
2018-08-04T02:46:36.193Z,62.87
2018-08-04T02:49:02.935Z,63.68
2018-08-04T02:51:29.704Z,62.97
2018-08-04T02:53:56.455Z,63.12
2018-08-04T02:56:24.181Z,63.56
2018-08-04T02:58:51.097Z,62.86
2018-08-04T03:01:18.323Z,63.61
2018-08-04T03:03:45.854Z,63.71
2018-08-04T03:06:12.590Z,62.85
2018-08-04T03:08:40.627Z,62.87
2018-08-04T03:11:07.434Z,63.69
2018-08-04T03:13:36.518Z,62.78
2018-08-04T03:16:03.281Z,63.63
2018-08-04T03:18:30.475Z,63.63
2018-08-04T03:20:57.284Z,63.42
2018-08-04T03:23:25.021Z,62.79
2018-08-04T03:25:52.717Z,62.87
2018-08-04T03:28:21.236Z,63.81
2018-08-04T03:30:49.050Z,62.81
2018-08-04T03:33:16.663Z,63.55
2018-08-04T03:35:44.404Z,63.55
2018-08-04T03:38:12.062Z,63.66
2018-08-04T03:40:40.041Z,63.17
2018-08-04T03:43:08.894Z,62.90
2018-08-04T03:45:36.457Z,63.37
2018-08-04T03:48:05.084Z,63.77
2018-08-04T03:50:31.863Z,63.16
2018-08-04T03:53:04.400Z,62.59
2018-08-04T03:55:32.102Z,63.56
2018-08-04T03:57:59.930Z,63.54
2018-08-04T04:00:27.677Z,63.38
2018-08-04T04:03:12.766Z,63.62
2018-08-04T04:05:39.706Z,63.03
2018-08-04T04:08:10.385Z,62.97
2018-08-04T04:10:38.126Z,62.94
2018-08-04T04:13:05.975Z,63.55
2018-08-04T04:15:35.295Z,63.21
2018-08-04T04:18:03.136Z,63.23
2018-08-04T04:20:30.875Z,63.70
2018-08-04T04:22:59.493Z,62.83
2018-08-04T04:25:26.501Z,63.84
2018-08-04T04:27:54.272Z,63.02
2018-08-04T04:30:22.003Z,63.54
2018-08-04T04:32:48.776Z,63.32
2018-08-04T04:35:18.450Z,63.72
2018-08-04T04:37:45.231Z,63.83
2018-08-04T04:40:13.002Z,63.54
2018-08-04T04:42:40.590Z,63.81
2018-08-04T04:48:05.618Z,63.40
2018-08-04T04:50:33.342Z,63.65
2018-08-04T04:53:01.439Z,62.98
2018-08-04T04:55:30.492Z,63.22
2018-08-04T05:00:50.579Z,63.73
2018-08-04T05:06:12.570Z,62.89
2018-08-04T05:09:07.911Z,62.79
2018-08-04T05:17:21.268Z,63.65
2018-08-04T05:19:50.207Z,63.09
2018-08-04T05:22:18.222Z,62.90
2018-08-04T05:27:38.619Z,63.59
2018-08-04T05:30:06.105Z,63.22
2018-08-04T05:35:30.724Z,63.68
2018-08-04T05:38:11.848Z,62.70
2018-08-04T05:43:35.586Z,63.74
2018-08-04T05:46:04.321Z,63.71
2018-08-04T05:48:31.719Z,63.70
2018-08-04T05:50:59.546Z,63.64
2018-08-04T05:53:26.409Z,63.08
2018-08-04T05:58:49.946Z,63.55
2018-08-04T06:07:02.260Z,63.78
2018-08-04T06:09:29.858Z,63.77
2018-08-04T06:11:56.821Z,62.67
2018-08-04T06:14:36.904Z,62.93
2018-08-04T06:19:45.059Z,62.75
2018-08-04T06:22:13.525Z,62.71
2018-08-04T06:27:26.142Z,63.62
2018-08-04T06:29:55.685Z,62.77
2018-08-04T06:32:23.648Z,63.60
2018-08-04T06:34:52.487Z,63.41
2018-08-04T06:37:35.886Z,62.70
2018-08-04T06:46:11.802Z,63.79
2018-08-04T06:48:38.617Z,63.10
2018-08-04T06:54:12.924Z,62.82
2018-08-04T06:56:40.724Z,63.10
2018-08-04T06:59:08.872Z,63.74
2018-08-04T07:01:35.782Z,63.80
2018-08-04T07:04:02.689Z,63.85
2018-08-04T07:06:30.994Z,63.86
2018-08-04T07:09:12.326Z,63.01
2018-08-04T07:11:39.150Z,62.97
2018-08-04T07:14:08.314Z,63.05
2018-08-04T07:19:35.119Z,63.74
2018-08-04T07:22:01.847Z,63.14
2018-08-04T07:24:30.490Z,62.91
2018-08-04T07:26:57.605Z,63.32
2018-08-04T07:29:25.387Z,63.62
2018-08-04T07:31:53.324Z,62.99
2018-08-04T07:34:20.948Z,63.82
2018-08-04T07:39:45.244Z,63.89
2018-08-04T07:42:12.069Z,63.33
2018-08-04T07:44:39.243Z,63.76
2018-08-04T07:47:06.052Z,63.78
2018-08-04T07:49:34.961Z,62.82
2018-08-04T07:52:02.082Z,63.27
2018-08-04T07:54:30.781Z,63.17
2018-08-04T07:56:58.954Z,63.96
2018-08-04T07:59:26.399Z,63.15
2018-08-04T08:11:03.221Z,62.90
2018-08-04T08:13:31.827Z,63.45
2018-08-04T08:16:03.026Z,62.70
2018-08-04T08:27:14.956Z,63.49
2018-08-04T08:32:45.040Z,62.99
2018-08-04T08:35:11.883Z,63.48
2018-08-04T08:37:38.986Z,63.18
2018-08-04T08:40:06.187Z,62.96
2018-08-04T08:42:35.428Z,63.55
2018-08-04T08:45:02.159Z,63.78
2018-08-04T08:47:30.069Z,63.36
2018-08-04T08:50:05.224Z,63.66
2018-08-04T08:52:32.137Z,62.86
2018-08-04T08:55:00.015Z,63.76
2018-08-04T08:57:26.891Z,63.51
2018-08-04T09:00:00.000Z,63.70
2018-08-04T09:02:27.035Z,62.95
2018-08-04T09:04:53.884Z,63.65
2018-08-04T09:07:27.577Z,63.21
2018-08-04T09:09:54.808Z,62.78
2018-08-04T09:12:21.596Z,62.99
2018-08-04T09:20:43.792Z,62.87
2018-08-04T09:26:17.446Z,63.15
2018-08-04T09:31:30.758Z,62.82
2018-08-04T09:33:57.735Z,62.83
2018-08-04T09:39:13.032Z,62.81
2018-08-04T09:41:42.079Z,63.07
2018-08-04T09:46:54.639Z,63.95
2018-08-04T09:52:08.219Z,63.09
2018-08-04T09:54:35.927Z,62.99
2018-08-04T09:57:07.145Z,63.69
2018-08-04T09:59:38.235Z,63.63
2018-08-04T10:02:13.790Z,63.58
2018-08-04T10:04:41.561Z,63.50
2018-08-04T10:07:08.886Z,63.37
2018-08-04T10:09:37.294Z,63.57
2018-08-04T10:12:06.339Z,63.60
2018-08-04T10:14:34.955Z,63.24
2018-08-04T10:17:02.778Z,63.57
2018-08-04T10:19:36.584Z,62.94
2018-08-04T10:22:05.507Z,63.61
2018-08-04T10:24:32.702Z,63.21
2018-08-04T10:27:14.413Z,63.83
2018-08-04T10:29:45.578Z,63.35
2018-08-04T10:38:10.086Z,63.71
2018-08-04T10:46:07.955Z,61.30
2018-08-04T10:51:23.218Z,61.48
2018-08-04T10:56:48.083Z,61.51
2018-08-04T11:05:08.218Z,60.71
2018-08-04T11:07:38.620Z,61.82
2018-08-04T11:10:06.182Z,61.12
2018-08-04T11:12:32.986Z,60.87
2018-08-04T11:15:00.903Z,61.63
2018-08-04T11:17:30.368Z,61.56
2018-08-04T11:20:16.800Z,61.59
2018-08-04T11:22:47.856Z,61.90
2018-08-04T11:25:16.262Z,61.01
2018-08-04T11:27:43.820Z,62.04
2018-08-04T11:30:12.146Z,61.19
2018-08-04T11:32:39.834Z,61.28
2018-08-04T11:35:06.929Z,61.92
2018-08-04T11:37:38.473Z,61.90
2018-08-04T11:40:06.146Z,62.17
2018-08-04T11:42:35.024Z,62.07
2018-08-04T11:45:02.083Z,61.46
2018-08-04T11:47:44.072Z,61.65
2018-08-04T11:50:13.631Z,62.37
2018-08-04T11:52:40.768Z,61.68
2018-08-04T11:55:08.464Z,62.05
2018-08-04T11:57:36.122Z,61.80
2018-08-04T12:00:03.143Z,61.84
2018-08-04T12:02:35.561Z,61.63
2018-08-04T12:05:14.577Z,61.28
2018-08-04T12:07:43.029Z,62.44
2018-08-04T12:10:10.092Z,63.00
2018-08-04T12:12:43.221Z,62.61
2018-08-04T12:20:52.246Z,62.16
2018-08-04T12:23:19.019Z,62.23
2018-08-04T12:25:46.772Z,62.03
2018-08-04T12:28:13.515Z,62.26
2018-08-04T12:33:41.005Z,62.34
2018-08-04T12:36:07.876Z,61.92
2018-08-04T12:38:36.622Z,62.13
2018-08-04T12:41:03.389Z,61.33
2018-08-04T12:46:15.596Z,62.21
2018-08-04T12:48:42.370Z,62.00
2018-08-04T12:51:10.811Z,61.28
2018-08-04T12:53:39.518Z,62.06
2018-08-04T12:56:06.715Z,61.48
2018-08-04T13:04:10.099Z,62.16
2018-08-04T13:09:35.488Z,61.59
2018-08-04T13:12:03.238Z,61.39
2018-08-04T13:14:30.557Z,62.21
2018-08-04T13:16:57.256Z,62.66
2018-08-04T13:19:24.848Z,62.23
2018-08-04T13:21:52.448Z,61.37
2018-08-04T13:24:20.098Z,62.38
2018-08-04T13:26:47.551Z,62.29
2018-08-04T13:29:14.233Z,62.52
2018-08-04T13:31:40.893Z,62.16
2018-08-04T13:34:08.405Z,62.60
2018-08-04T13:36:39.718Z,62.43
2018-08-04T13:41:53.380Z,61.99
2018-08-04T13:44:20.928Z,62.17
2018-08-04T13:46:48.497Z,61.46
2018-08-04T13:49:15.148Z,62.24
2018-08-04T13:51:41.812Z,61.53
2018-08-04T13:54:08.476Z,61.71
2018-08-04T13:56:35.774Z,62.19
2018-08-04T13:59:02.448Z,61.79
2018-08-04T14:01:30.141Z,61.67
2018-08-04T14:03:56.796Z,61.83
2018-08-04T14:06:23.470Z,61.20
2018-08-04T14:08:51.061Z,61.66
2018-08-04T14:11:17.704Z,61.49
2018-08-04T14:13:44.424Z,61.91
2018-08-04T14:16:11.076Z,62.54
2018-08-04T14:18:38.532Z,62.58
2018-08-04T14:21:06.092Z,62.48
2018-08-04T14:23:33.820Z,62.71
2018-08-04T14:26:01.377Z,62.69
2018-08-04T14:28:28.072Z,61.88
2018-08-04T14:30:55.679Z,61.74
2018-08-04T14:33:22.376Z,62.76
2018-08-04T14:35:49.836Z,62.58
2018-08-04T14:38:17.387Z,61.79
2018-08-04T14:40:45.025Z,62.68
2018-08-04T14:43:12.624Z,62.64
2018-08-04T14:45:40.093Z,62.81
2018-08-04T14:48:07.855Z,62.75
2018-08-04T14:50:35.335Z,62.65
2018-08-04T14:53:03.117Z,61.73
2018-08-04T14:55:30.707Z,62.26
2018-08-04T14:57:58.201Z,62.62
2018-08-04T15:00:26.589Z,61.78
2018-08-04T15:02:54.089Z,62.58
2018-08-04T15:05:21.764Z,62.15
2018-08-04T15:07:49.349Z,62.01
2018-08-04T15:10:16.836Z,62.31
2018-08-04T15:12:44.272Z,61.86
2018-08-04T15:15:10.937Z,62.95
2018-08-04T15:17:37.617Z,62.98
2018-08-04T15:20:05.362Z,62.17
2018-08-04T15:22:32.057Z,63.02
2018-08-04T15:25:00.432Z,63.04
2018-08-04T15:27:27.106Z,63.03
2018-08-04T15:29:53.784Z,62.98
2018-08-04T15:32:20.476Z,62.36
2018-08-04T15:34:47.976Z,62.29
2018-08-04T15:37:15.573Z,63.18
2018-08-04T15:39:43.157Z,63.06
2018-08-04T15:42:09.829Z,62.76
2018-08-04T15:44:36.488Z,63.39
2018-08-04T15:47:03.137Z,62.64
2018-08-04T15:49:30.452Z,63.11
2018-08-04T15:51:57.117Z,63.29
2018-08-04T15:54:23.784Z,62.46
2018-08-04T15:56:50.442Z,63.18
2018-08-04T15:59:17.244Z,63.13
2018-08-04T16:01:43.900Z,62.43
2018-08-04T16:04:10.689Z,62.48
2018-08-04T16:06:37.357Z,62.42
2018-08-04T16:09:05.757Z,63.05
2018-08-04T16:11:32.417Z,62.74
2018-08-04T16:13:59.900Z,63.10
2018-08-04T16:16:26.600Z,62.42
2018-08-04T16:18:54.244Z,62.27
2018-08-04T16:21:21.877Z,63.09
2018-08-04T16:23:49.507Z,62.43
2018-08-04T16:26:16.808Z,62.28
2018-08-04T16:28:44.476Z,63.00
2018-08-04T16:31:12.116Z,62.22
2018-08-04T16:33:39.739Z,62.27
2018-08-04T16:36:06.389Z,62.18
2018-08-04T16:38:35.208Z,63.06
2018-08-04T16:41:02.817Z,62.50
2018-08-04T16:43:30.426Z,62.07
2018-08-04T16:45:57.961Z,63.12
2018-08-04T16:48:25.448Z,63.07
2018-08-04T16:50:53.237Z,62.62
2018-08-04T16:53:20.760Z,62.63
2018-08-04T16:55:48.392Z,62.65
2018-08-04T16:58:15.997Z,62.12
2018-08-04T17:00:43.570Z,62.13
2018-08-04T17:03:10.212Z,63.02
2018-08-04T17:05:37.680Z,63.04
2018-08-04T17:08:05.416Z,62.56
2018-08-04T17:10:32.061Z,63.17
2018-08-04T17:12:58.748Z,62.38
2018-08-04T17:15:25.392Z,62.35
2018-08-04T17:17:52.048Z,62.21
2018-08-04T17:20:18.760Z,62.41
2018-08-04T17:22:45.416Z,63.01
2018-08-04T17:25:12.105Z,63.16
2018-08-04T17:27:38.776Z,62.48
2018-08-04T17:30:05.452Z,62.92
2018-08-04T17:32:32.389Z,62.07
2018-08-04T17:35:00.090Z,63.16
2018-08-04T17:37:26.807Z,62.10
2018-08-04T17:39:53.505Z,62.97
2018-08-04T17:42:20.153Z,62.91
2018-08-04T17:44:46.815Z,62.26
2018-08-04T17:47:14.288Z,62.39
2018-08-04T17:49:41.933Z,63.21
2018-08-04T17:52:09.555Z,63.15
2018-08-04T17:54:36.222Z,62.36
2018-08-04T17:57:02.985Z,63.10
2018-08-04T17:59:30.627Z,63.02
2018-08-04T18:01:58.336Z,62.96
2018-08-04T18:04:26.438Z,62.98
2018-08-04T18:06:53.113Z,62.72
2018-08-04T18:09:19.776Z,62.70
2018-08-04T18:11:46.424Z,62.27
2018-08-04T18:14:14.081Z,63.04
2018-08-04T18:16:40.740Z,62.75
2018-08-04T18:19:07.396Z,62.81
2018-08-04T18:21:35.668Z,62.50
2018-08-04T18:24:02.324Z,62.38
2018-08-04T18:26:30.065Z,62.28
2018-08-04T18:28:56.723Z,63.41
2018-08-04T18:31:23.388Z,62.34
2018-08-04T18:33:50.060Z,62.42
2018-08-04T18:36:16.765Z,62.47
2018-08-04T18:38:44.266Z,63.12
2018-08-04T18:41:11.733Z,63.16
2018-08-04T18:43:39.336Z,62.85
2018-08-04T18:46:06.032Z,62.80
2018-08-04T18:48:32.700Z,62.41
2018-08-04T18:51:00.440Z,62.49
2018-08-04T18:53:27.972Z,63.10
2018-08-04T18:55:54.809Z,62.79
2018-08-04T18:58:22.373Z,62.73
2018-08-04T19:00:49.033Z,63.35
2018-08-04T19:03:15.692Z,63.33
2018-08-04T19:05:42.397Z,63.21
2018-08-04T19:08:09.056Z,63.06
2018-08-04T19:10:35.733Z,62.44
2018-08-04T19:13:02.429Z,62.57
2018-08-04T19:15:31.443Z,62.90
2018-08-04T19:17:58.095Z,62.52
2018-08-04T19:20:24.797Z,62.62
2018-08-04T19:22:51.573Z,63.11
2018-08-04T19:25:18.253Z,62.72
2018-08-04T19:27:44.970Z,62.55
2018-08-04T19:30:11.602Z,62.72
2018-08-04T19:32:38.265Z,62.49
2018-08-04T19:35:06.066Z,62.39
2018-08-04T19:37:32.716Z,62.68
2018-08-04T19:40:00.325Z,62.61
2018-08-04T19:42:26.976Z,63.33
2018-08-04T19:44:53.625Z,62.55
2018-08-04T19:47:25.068Z,62.56
2018-08-04T19:49:51.753Z,63.40
2018-08-04T19:52:18.402Z,63.51
2018-08-04T19:54:45.049Z,62.65
2018-08-04T19:57:11.722Z,62.54
2018-08-04T19:59:39.107Z,63.29
2018-08-04T20:02:05.837Z,63.33
2018-08-04T20:04:32.497Z,63.20
2018-08-04T20:07:01.181Z,63.55
2018-08-04T20:09:27.833Z,62.90
2018-08-04T20:11:54.484Z,63.15
2018-08-04T20:14:21.154Z,62.62
2018-08-04T20:16:47.827Z,63.13
2018-08-04T20:19:14.498Z,63.15
2018-08-04T20:21:41.140Z,62.63
2018-08-04T20:24:07.812Z,63.24
2018-08-04T20:26:35.748Z,62.51
2018-08-04T20:29:03.373Z,63.44
2018-08-04T20:31:30.738Z,63.25
2018-08-04T20:33:57.420Z,63.39
2018-08-04T20:36:25.021Z,63.00
2018-08-04T20:38:53.687Z,63.23
2018-08-04T20:41:21.171Z,63.28
2018-08-04T20:43:47.818Z,62.66
2018-08-04T20:46:14.468Z,62.58
2018-08-04T20:48:41.118Z,62.51
2018-08-04T20:51:07.757Z,62.66
2018-08-04T20:53:35.045Z,63.37
2018-08-04T20:56:01.695Z,62.67
2018-08-04T20:58:30.472Z,62.58
2018-08-04T21:01:02.793Z,63.28
2018-08-04T21:03:29.900Z,62.68
2018-08-04T21:05:57.420Z,63.27
2018-08-04T21:08:27.105Z,62.45
2018-08-04T21:10:53.794Z,63.04
2018-08-04T21:13:20.788Z,62.68
2018-08-04T21:15:48.438Z,63.37
2018-08-04T21:18:15.113Z,63.29
2018-08-04T21:20:42.744Z,63.19
2018-08-04T21:23:09.401Z,63.35
2018-08-04T21:25:36.049Z,63.33
2018-08-04T21:28:02.797Z,63.54
2018-08-04T21:30:30.834Z,62.88
2018-08-04T21:32:57.510Z,62.89
2018-08-04T21:35:24.172Z,63.47
2018-08-04T21:37:50.862Z,63.32
2018-08-04T21:40:17.521Z,62.67
2018-08-04T21:42:44.197Z,62.61
2018-08-04T21:45:10.909Z,62.66
2018-08-04T21:47:37.588Z,63.29
2018-08-04T21:50:05.481Z,62.79
2018-08-04T21:52:32.196Z,63.37
2018-08-04T21:54:58.921Z,63.27
2018-08-04T21:57:25.668Z,63.40
2018-08-04T21:59:52.344Z,63.33
2018-08-04T22:02:18.999Z,62.43
2018-08-04T22:04:45.675Z,62.55
2018-08-04T22:07:44.108Z,63.31
2018-08-04T22:10:12.037Z,63.38
2018-08-04T22:12:38.681Z,63.55
2018-08-04T22:15:05.622Z,63.53
2018-08-04T22:17:33.334Z,63.05
2018-08-04T22:20:00.933Z,63.44
2018-08-04T22:22:27.592Z,63.01
2018-08-04T22:24:54.506Z,63.46
2018-08-04T22:27:21.205Z,63.29
2018-08-04T22:29:47.944Z,63.04
2018-08-04T22:32:14.623Z,63.31
2018-08-04T22:34:42.180Z,62.54
2018-08-04T22:37:09.781Z,63.01
2018-08-04T22:39:36.533Z,62.83
2018-08-04T22:42:04.909Z,62.86
2018-08-04T22:44:32.690Z,63.39
2018-08-04T22:47:01.585Z,63.39
2018-08-04T22:49:29.802Z,63.32
2018-08-04T22:51:57.410Z,63.42
2018-08-04T22:54:24.060Z,63.39
2018-08-04T22:56:50.730Z,63.21
2018-08-04T22:59:17.412Z,63.28
2018-08-04T23:01:46.082Z,63.62
2018-08-04T23:04:13.274Z,62.70
2018-08-04T23:06:40.981Z,62.88
2018-08-04T23:09:07.685Z,62.73
2018-08-04T23:11:35.546Z,62.76
2018-08-04T23:14:02.249Z,62.79
2018-08-04T23:16:28.972Z,62.70
2018-08-04T23:18:56.564Z,62.73
2018-08-04T23:21:23.217Z,62.73
2018-08-04T23:23:49.880Z,63.57
2018-08-04T23:26:16.550Z,62.67
2018-08-04T23:28:43.211Z,62.64
2018-08-04T23:31:09.872Z,62.71
2018-08-04T23:33:36.580Z,63.47
2018-08-04T23:36:03.241Z,62.58
2018-08-04T23:38:35.925Z,63.04
2018-08-04T23:41:02.621Z,62.59
2018-08-04T23:43:30.260Z,62.79
2018-08-04T23:45:57.750Z,63.48
2018-08-04T23:48:24.457Z,62.55
2018-08-04T23:50:51.127Z,62.87
2018-08-04T23:53:17.800Z,62.81
2018-08-04T23:55:46.633Z,62.75
2018-08-04T23:58:14.212Z,63.41
